createdAt,value
2022-11-06T00:01:11.088Z,14.07
2022-11-06T00:03:38.262Z,14.80
2022-11-06T00:06:26.835Z,14.38
2022-11-06T00:08:54.010Z,14.13
2022-11-06T00:11:20.782Z,14.00
2022-11-06T00:13:48.057Z,14.77
2022-11-06T00:16:14.898Z,15.02
2022-11-06T00:18:41.962Z,14.05
2022-11-06T00:21:10.050Z,13.23
2022-11-06T00:23:37.261Z,13.75
2022-11-06T00:26:08.450Z,14.18
2022-11-06T00:28:35.599Z,12.95
2022-11-06T00:31:10.972Z,13.60
2022-11-06T00:33:38.177Z,13.60
2022-11-06T00:36:06.146Z,13.10
2022-11-06T00:38:33.322Z,13.45
2022-11-06T00:41:07.613Z,12.48
2022-11-06T00:43:35.799Z,14.38
2022-11-06T00:46:08.223Z,13.27
2022-11-06T00:48:35.653Z,12.38
2022-11-06T00:51:31.674Z,12.57
2022-11-06T00:54:00.572Z,11.98
2022-11-06T00:56:27.430Z,13.02
2022-11-06T00:58:54.796Z,12.73
2022-11-06T01:01:26.355Z,13.23
2022-11-06T01:03:55.893Z,12.10
2022-11-06T01:06:24.330Z,11.80
2022-11-06T01:08:51.618Z,13.02
2022-11-06T01:11:22.509Z,12.52
2022-11-06T01:13:51.051Z,11.43
2022-11-06T01:16:17.897Z,11.23
2022-11-06T01:18:45.361Z,11.63
2022-11-06T01:21:17.560Z,11.55
2022-11-06T01:23:44.607Z,12.77
2022-11-06T01:26:12.152Z,11.73
2022-11-06T01:28:39.461Z,11.70
2022-11-06T01:31:14.246Z,11.23
2022-11-06T01:33:41.274Z,12.10
2022-11-06T01:36:12.214Z,12.32
2022-11-06T01:38:43.000Z,10.30
2022-11-06T01:41:12.228Z,10.90
2022-11-06T01:44:14.397Z,11.95
2022-11-06T01:46:41.144Z,11.32
2022-11-06T01:49:09.301Z,11.07
2022-11-06T01:51:56.562Z,10.23
2022-11-06T01:54:24.559Z,10.68
2022-11-06T01:56:52.134Z,10.48
2022-11-06T01:59:20.546Z,11.55
2022-11-06T02:01:47.444Z,11.05
2022-11-06T02:04:20.262Z,11.40
2022-11-06T02:06:47.147Z,9.60
2022-11-06T02:09:14.664Z,11.07
2022-11-06T02:11:45.958Z,11.35
2022-11-06T02:14:22.182Z,10.77
2022-11-06T02:17:16.202Z,12.80
2022-11-06T02:19:54.433Z,11.65
2022-11-06T02:23:03.626Z,11.38
2022-11-06T02:25:55.847Z,11.23
2022-11-06T02:28:34.837Z,10.85
2022-11-06T02:31:04.457Z,10.55
2022-11-06T02:33:36.296Z,9.93
2022-11-06T02:36:06.155Z,10.82
2022-11-06T02:38:41.518Z,11.15
2022-11-06T02:41:13.801Z,11.05
2022-11-06T02:43:43.458Z,10.38
2022-11-06T02:46:14.442Z,10.27
2022-11-06T02:48:47.573Z,11.63
2022-11-06T02:51:16.606Z,10.60
2022-11-06T02:53:43.960Z,10.52
2022-11-06T02:56:12.721Z,9.80
2022-11-06T02:58:50.160Z,10.55
2022-11-06T03:01:24.888Z,10.25
2022-11-06T03:03:54.663Z,10.55
2022-11-06T03:06:58.179Z,10.77
2022-11-06T03:09:28.500Z,9.93
2022-11-06T03:12:08.908Z,10.43
2022-11-06T03:14:39.329Z,10.65
2022-11-06T03:17:15.888Z,10.48
2022-11-06T03:19:52.155Z,11.52
2022-11-06T03:22:19.751Z,11.63
2022-11-06T03:24:50.648Z,11.50
2022-11-06T03:27:24.922Z,11.52
2022-11-06T03:29:59.376Z,11.50
2022-11-06T03:32:49.528Z,11.52
2022-11-06T03:35:22.868Z,12.10
2022-11-06T03:38:01.159Z,11.48
2022-11-06T03:40:31.479Z,11.77
2022-11-06T03:42:59.680Z,12.00
2022-11-06T03:45:26.731Z,11.15
2022-11-06T03:48:00.788Z,11.18
2022-11-06T03:50:33.354Z,11.97
2022-11-06T03:53:05.119Z,12.00
2022-11-06T03:55:34.804Z,12.15
2022-11-06T03:58:06.903Z,13.23
2022-11-06T04:00:34.770Z,11.93
2022-11-06T04:03:05.207Z,12.55
2022-11-06T04:05:41.729Z,12.45
2022-11-06T04:08:27.237Z,12.27
2022-11-06T04:14:00.900Z,12.73
2022-11-06T04:16:34.145Z,12.82
2022-11-06T04:19:01.049Z,13.07
2022-11-06T04:22:02.271Z,12.88
2022-11-06T04:25:12.628Z,13.20
2022-11-06T04:28:00.576Z,12.23
2022-11-06T04:30:27.396Z,12.73
2022-11-06T04:33:00.677Z,12.52
2022-11-06T04:35:48.914Z,13.38
2022-11-06T04:38:49.310Z,13.40
2022-11-06T04:41:34.624Z,11.57
2022-11-06T04:44:09.202Z,13.30
2022-11-06T04:47:00.959Z,13.27
2022-11-06T04:49:29.704Z,12.38
2022-11-06T04:51:56.399Z,11.93
2022-11-06T04:54:23.445Z,13.93
2022-11-06T04:56:50.132Z,13.00
2022-11-06T04:59:17.757Z,12.27
2022-11-06T05:01:45.791Z,12.50
2022-11-06T05:04:12.999Z,11.55
2022-11-06T05:06:39.745Z,11.63
2022-11-06T05:09:06.796Z,11.65
2022-11-06T05:11:33.521Z,12.10
2022-11-06T05:14:00.520Z,13.20
2022-11-06T05:16:27.261Z,12.32
2022-11-06T05:18:54.281Z,12.27
2022-11-06T05:21:39.705Z,12.15
2022-11-06T05:26:33.534Z,12.15
2022-11-06T05:29:00.563Z,13.73
2022-11-06T05:31:27.910Z,12.02
2022-11-06T05:33:54.991Z,13.40
2022-11-06T05:36:21.711Z,13.00
2022-11-06T05:38:48.720Z,11.32
2022-11-06T05:41:15.556Z,12.18
2022-11-06T05:43:42.715Z,12.40
2022-11-06T05:46:29.763Z,11.85
2022-11-06T05:48:56.584Z,12.93
2022-11-06T05:51:23.339Z,12.13
2022-11-06T05:53:50.350Z,12.95
2022-11-06T05:56:17.035Z,12.00
2022-11-06T05:58:44.104Z,11.70
2022-11-06T06:01:10.898Z,11.70
2022-11-06T06:03:37.906Z,11.98
2022-11-06T06:06:04.793Z,11.45
2022-11-06T06:08:31.824Z,12.05
2022-11-06T06:10:58.565Z,10.98
2022-11-06T06:13:25.558Z,12.85
2022-11-06T06:15:52.265Z,11.25
2022-11-06T06:18:19.300Z,11.60
2022-11-06T06:20:46.064Z,10.40
2022-11-06T06:23:13.082Z,11.27
2022-11-06T06:25:39.783Z,11.93
2022-11-06T06:28:07.287Z,11.07
2022-11-06T06:30:35.838Z,12.20
2022-11-06T06:33:06.106Z,11.23
2022-11-06T06:35:33.068Z,11.43
2022-11-06T06:38:00.222Z,11.20
2022-11-06T06:40:26.990Z,11.45
2022-11-06T06:42:57.684Z,10.65
2022-11-06T06:45:26.015Z,11.90
2022-11-06T06:47:53.097Z,11.32
2022-11-06T06:50:19.881Z,12.07
2022-11-06T06:52:47.501Z,11.80
2022-11-06T06:55:14.364Z,10.93
2022-11-06T06:57:41.425Z,10.13
2022-11-06T07:00:08.613Z,11.40
2022-11-06T07:02:35.590Z,10.55
2022-11-06T07:05:02.382Z,12.15
2022-11-06T07:07:29.426Z,11.93
2022-11-06T07:09:56.195Z,12.75
2022-11-06T07:12:23.206Z,13.43
2022-11-06T07:14:49.917Z,13.88
2022-11-06T07:17:16.953Z,13.43
2022-11-06T07:19:43.787Z,12.57
2022-11-06T07:22:10.797Z,13.88
2022-11-06T07:24:37.501Z,14.82
2022-11-06T07:27:04.814Z,14.02
2022-11-06T07:29:31.546Z,14.10
2022-11-06T07:31:58.640Z,14.48
2022-11-06T07:34:25.449Z,15.75
2022-11-06T07:36:52.534Z,14.10
2022-11-06T07:39:19.264Z,13.95
2022-11-06T07:41:46.308Z,13.93
2022-11-06T07:44:13.126Z,14.32
2022-11-06T07:46:40.134Z,13.57
2022-11-06T07:49:06.829Z,13.30
2022-11-06T07:51:33.835Z,13.57
2022-11-06T07:54:00.495Z,14.05
2022-11-06T07:56:27.557Z,14.57
2022-11-06T07:58:54.357Z,14.43
2022-11-06T08:01:21.563Z,14.05
2022-11-06T08:03:48.374Z,14.23
2022-11-06T08:06:15.427Z,14.32
2022-11-06T08:08:42.106Z,13.77
2022-11-06T08:11:10.350Z,13.70
2022-11-06T08:13:37.347Z,13.77
2022-11-06T08:16:14.321Z,14.88
2022-11-06T08:18:41.226Z,15.18
2022-11-06T08:21:08.254Z,14.18
2022-11-06T08:23:35.462Z,14.35
2022-11-06T08:26:03.382Z,14.30
2022-11-06T08:28:30.063Z,13.85
2022-11-06T08:30:57.066Z,15.48
2022-11-06T08:33:24.330Z,14.23
2022-11-06T08:35:51.539Z,14.18
2022-11-06T08:38:19.159Z,15.48
2022-11-06T08:40:52.375Z,15.65
2022-11-06T08:43:20.298Z,14.18
2022-11-06T08:45:47.330Z,15.20
2022-11-06T08:48:14.035Z,14.20
2022-11-06T08:50:41.699Z,14.30
2022-11-06T08:53:08.516Z,14.25
2022-11-06T08:55:37.845Z,14.95
2022-11-06T08:58:04.963Z,14.68
2022-11-06T09:00:32.012Z,13.70
2022-11-06T09:03:03.090Z,14.10
2022-11-06T09:05:30.984Z,14.45
2022-11-06T09:07:58.282Z,15.30
2022-11-06T09:10:25.631Z,14.43
2022-11-06T09:12:52.640Z,15.77
2022-11-06T09:15:22.929Z,14.20
2022-11-06T09:17:50.709Z,15.27
2022-11-06T09:20:21.710Z,14.13
2022-11-06T09:22:48.539Z,14.65
2022-11-06T09:25:15.751Z,14.02
2022-11-06T09:27:46.739Z,15.20
2022-11-06T09:30:15.092Z,14.45
2022-11-06T09:32:49.442Z,15.32
2022-11-06T09:35:16.701Z,15.48
2022-11-06T09:37:43.460Z,15.25
2022-11-06T09:40:33.348Z,15.48
2022-11-06T09:43:50.215Z,16.30
2022-11-06T09:46:25.073Z,15.55
2022-11-06T09:48:55.911Z,16.42
2022-11-06T09:51:46.124Z,16.52
2022-11-06T09:54:16.439Z,17.58
2022-11-06T09:56:43.691Z,16.52
2022-11-06T09:59:17.774Z,15.55
2022-11-06T10:01:49.858Z,16.23
2022-11-06T10:04:47.570Z,15.32
2022-11-06T10:07:23.884Z,16.80
2022-11-06T10:09:50.655Z,15.98
2022-11-06T10:12:24.670Z,16.42
2022-11-06T10:15:17.520Z,16.13
2022-11-06T10:18:09.214Z,16.50
2022-11-06T10:20:54.701Z,16.63
2022-11-06T10:25:58.388Z,16.45
2022-11-06T10:28:48.597Z,15.88
2022-11-06T10:31:36.687Z,16.33
2022-11-06T10:34:13.148Z,16.65
2022-11-06T10:36:50.258Z,17.08
2022-11-06T10:39:20.102Z,16.77
2022-11-06T10:41:51.699Z,17.27
2022-11-06T10:44:30.983Z,18.13
2022-11-06T10:47:14.351Z,16.98
2022-11-06T10:49:53.135Z,17.63
2022-11-06T10:52:34.986Z,17.95
2022-11-06T10:55:30.858Z,18.65
2022-11-06T10:58:26.859Z,20.90
2022-11-06T11:00:55.179Z,18.58
2022-11-06T11:03:44.236Z,19.13
2022-11-06T11:06:11.361Z,19.30
2022-11-06T11:08:50.963Z,18.92
2022-11-06T11:11:25.585Z,18.83
2022-11-06T11:14:01.537Z,19.90
2022-11-06T11:16:30.057Z,18.67
2022-11-06T11:18:56.917Z,19.83
2022-11-06T11:21:25.820Z,19.98
2022-11-06T11:24:12.925Z,18.52
2022-11-06T11:26:44.349Z,18.00
2022-11-06T11:29:16.906Z,17.63
2022-11-06T11:31:50.521Z,18.20
2022-11-06T11:34:20.152Z,18.00
2022-11-06T11:37:04.270Z,17.17
2022-11-06T11:39:34.656Z,17.77
2022-11-06T11:42:16.961Z,18.15
2022-11-06T11:44:43.841Z,17.30
2022-11-06T11:47:24.211Z,16.00
2022-11-06T11:49:50.933Z,16.40
2022-11-06T11:52:19.647Z,16.85
2022-11-06T11:54:48.277Z,17.90
2022-11-06T11:57:22.776Z,15.88
2022-11-06T11:59:52.810Z,15.98
2022-11-06T12:02:26.939Z,16.95
2022-11-06T12:04:57.831Z,17.42
2022-11-06T12:07:32.841Z,16.90
2022-11-06T12:09:59.920Z,17.73
2022-11-06T12:12:31.318Z,18.92
2022-11-06T12:15:04.427Z,18.23
2022-11-06T12:17:33.433Z,17.92
2022-11-06T12:20:00.214Z,18.92
2022-11-06T12:22:39.456Z,18.08
2022-11-06T12:25:10.220Z,17.13
2022-11-06T12:27:38.532Z,17.45
2022-11-06T12:30:15.646Z,16.88
2022-11-06T12:32:53.280Z,16.70
2022-11-06T12:35:34.640Z,18.17
2022-11-06T12:38:39.273Z,17.20
2022-11-06T12:41:51.043Z,17.80
2022-11-06T12:44:18.198Z,15.88
2022-11-06T12:46:48.396Z,15.60
2022-11-06T12:49:50.709Z,16.40
2022-11-06T12:52:29.739Z,16.88
2022-11-06T12:54:59.752Z,16.20
2022-11-06T12:57:57.662Z,16.95
2022-11-06T13:00:31.285Z,15.93
2022-11-06T13:03:29.092Z,16.50
2022-11-06T13:06:13.418Z,15.35
2022-11-06T13:09:09.800Z,15.10
2022-11-06T13:11:51.803Z,15.55
2022-11-06T13:14:26.323Z,15.48
2022-11-06T13:17:04.253Z,15.10
2022-11-06T13:19:39.484Z,15.85
2022-11-06T13:22:12.475Z,15.93
2022-11-06T13:24:56.898Z,15.90
2022-11-06T13:27:36.148Z,14.82
2022-11-06T13:30:25.065Z,14.13
2022-11-06T13:33:10.652Z,15.23
2022-11-06T13:35:39.241Z,15.75
2022-11-06T13:38:17.183Z,14.77
2022-11-06T13:40:45.191Z,15.77
2022-11-06T13:43:17.145Z,14.52
2022-11-06T13:46:05.065Z,15.40
2022-11-06T13:48:38.399Z,14.98
2022-11-06T13:51:14.416Z,15.23
2022-11-06T13:54:13.777Z,15.65
2022-11-06T13:56:53.738Z,14.77
2022-11-06T13:59:34.337Z,14.00
2022-11-06T14:02:29.546Z,16.00
2022-11-06T14:05:18.188Z,15.35
2022-11-06T14:07:46.236Z,14.75
2022-11-06T14:10:21.117Z,14.95
2022-11-06T14:12:48.062Z,15.20
2022-11-06T14:15:20.117Z,14.45
2022-11-06T14:18:00.290Z,14.07
2022-11-06T14:20:32.998Z,14.15
2022-11-06T14:23:29.370Z,13.18
2022-11-06T14:26:03.924Z,13.85
2022-11-06T14:28:34.622Z,13.55
2022-11-06T14:31:22.685Z,12.95
2022-11-06T14:33:49.458Z,13.55
2022-11-06T14:36:36.839Z,13.85
2022-11-06T14:39:04.083Z,12.38
2022-11-06T14:41:34.138Z,12.80
2022-11-06T14:44:05.822Z,13.48
2022-11-06T14:46:33.020Z,13.75
2022-11-06T14:49:11.956Z,12.73
2022-11-06T14:51:38.972Z,13.05
2022-11-06T14:54:18.326Z,13.00
2022-11-06T14:56:51.786Z,12.95
2022-11-06T14:59:27.827Z,12.82
2022-11-06T15:01:56.996Z,13.10
2022-11-06T15:04:24.320Z,13.43
2022-11-06T15:06:51.448Z,12.55
2022-11-06T15:09:24.332Z,12.40
2022-11-06T15:11:53.538Z,12.88
2022-11-06T15:14:20.210Z,13.57
2022-11-06T15:17:05.235Z,12.30
2022-11-06T15:19:43.242Z,14.32
2022-11-06T15:22:20.554Z,12.50
2022-11-06T15:24:53.634Z,14.80
2022-11-06T15:27:22.139Z,16.27
2022-11-06T15:29:52.038Z,15.85
2022-11-06T15:32:20.977Z,16.40
2022-11-06T15:35:00.965Z,16.27
2022-11-06T15:37:31.178Z,18.58
2022-11-06T15:40:01.352Z,23.55
2022-11-06T15:42:29.506Z,24.02
2022-11-06T15:45:12.889Z,23.25
2022-11-06T15:47:39.933Z,24.30
2022-11-06T15:50:12.948Z,23.75
2022-11-06T15:52:40.499Z,26.15
2022-11-06T15:55:12.346Z,26.13
2022-11-06T15:57:39.365Z,27.52
2022-11-06T16:00:15.986Z,29.00
2022-11-06T16:02:50.487Z,29.80
2022-11-06T16:05:17.614Z,30.65
2022-11-06T16:07:47.686Z,31.90
2022-11-06T16:10:15.884Z,30.85
2022-11-06T16:12:42.886Z,32.05
2022-11-06T16:15:50.033Z,32.60
2022-11-06T16:18:24.573Z,31.85
2022-11-06T16:20:54.298Z,33.55
2022-11-06T16:23:31.608Z,34.42
2022-11-06T16:26:13.251Z,33.70
2022-11-06T16:28:44.574Z,34.65
2022-11-06T16:31:22.463Z,34.53
2022-11-06T16:34:04.134Z,34.80
2022-11-06T16:36:32.211Z,36.15
2022-11-06T16:39:48.154Z,34.45
2022-11-06T16:45:17.436Z,34.00
2022-11-06T16:48:18.408Z,34.13
2022-11-06T16:50:49.918Z,34.25
2022-11-06T16:53:26.866Z,36.30
2022-11-06T16:55:57.850Z,35.05
2022-11-06T16:58:24.924Z,34.35
2022-11-06T17:01:02.945Z,35.47
2022-11-06T17:03:35.204Z,33.22
2022-11-06T17:06:02.283Z,34.75
2022-11-06T17:08:40.154Z,36.28
2022-11-06T17:11:13.400Z,35.25
2022-11-06T17:13:43.805Z,35.40
2022-11-06T17:16:18.397Z,34.88
2022-11-06T17:18:45.245Z,33.55
2022-11-06T17:21:13.997Z,34.85
2022-11-06T17:23:40.809Z,34.42
2022-11-06T17:26:12.765Z,33.97
2022-11-06T17:28:39.442Z,35.63
2022-11-06T17:31:06.572Z,33.40
2022-11-06T17:33:33.269Z,36.92
2022-11-06T17:36:00.269Z,33.03
2022-11-06T17:38:26.969Z,35.50
2022-11-06T17:40:53.982Z,35.13
2022-11-06T17:43:20.663Z,35.25
2022-11-06T17:45:49.992Z,36.83
2022-11-06T17:48:17.630Z,33.92
2022-11-06T17:51:03.409Z,36.85
2022-11-06T17:53:30.131Z,35.25
2022-11-06T17:55:57.148Z,34.50
2022-11-06T17:58:23.893Z,36.78
2022-11-06T18:00:50.918Z,36.03
2022-11-06T18:03:19.395Z,37.17
2022-11-06T18:05:46.913Z,35.08
2022-11-06T18:08:14.180Z,35.80
2022-11-06T18:10:41.550Z,35.25
2022-11-06T18:13:08.331Z,34.65
2022-11-06T18:15:36.112Z,36.83
2022-11-06T18:18:03.293Z,37.63
2022-11-06T18:20:30.373Z,36.42
2022-11-06T18:22:57.076Z,37.05
2022-11-06T18:25:24.104Z,38.92
2022-11-06T18:27:50.870Z,38.58
2022-11-06T18:30:17.960Z,35.42
2022-11-06T18:32:44.673Z,37.63
2022-11-06T18:35:11.689Z,36.90
2022-11-06T18:37:38.656Z,37.88
2022-11-06T18:40:06.103Z,37.40
2022-11-06T18:42:32.871Z,39.42
2022-11-06T18:44:59.895Z,39.15
2022-11-06T18:47:26.586Z,41.47
2022-11-06T18:49:53.588Z,41.67
2022-11-06T18:52:44.437Z,39.90
2022-11-06T18:55:07.824Z,42.13
2022-11-06T18:57:34.568Z,40.78
2022-11-06T19:00:01.736Z,45.28
2022-11-06T19:02:28.592Z,43.72
2022-11-06T19:04:55.797Z,42.25
2022-11-06T19:07:22.564Z,42.35
2022-11-06T19:09:49.768Z,43.53
2022-11-06T19:12:16.500Z,44.72
2022-11-06T19:14:43.519Z,48.13
2022-11-06T19:17:10.215Z,44.75
2022-11-06T19:19:37.268Z,47.88
2022-11-06T19:22:04.048Z,47.22
2022-11-06T19:24:32.840Z,49.92
2022-11-06T19:26:59.608Z,48.75
2022-11-06T19:29:26.592Z,46.63
2022-11-06T19:31:55.245Z,47.20
2022-11-06T19:34:25.604Z,47.95
2022-11-06T19:36:52.412Z,48.30
2022-11-06T19:39:19.525Z,47.95
2022-11-06T19:41:46.331Z,48.03
2022-11-06T19:44:13.447Z,48.97
2022-11-06T19:46:40.254Z,48.75
2022-11-06T19:49:08.488Z,47.70
2022-11-06T19:51:37.485Z,49.20
2022-11-06T19:54:07.807Z,48.63
2022-11-06T19:56:34.535Z,50.30
2022-11-06T19:59:02.314Z,49.45
2022-11-06T20:01:29.221Z,48.67
2022-11-06T20:03:56.306Z,50.40
2022-11-06T20:06:23.066Z,52.55
2022-11-06T20:08:50.487Z,51.75
2022-11-06T20:11:17.383Z,51.80
2022-11-06T20:13:44.949Z,51.75
2022-11-06T20:16:19.451Z,48.45
2022-11-06T20:18:53.396Z,51.40
2022-11-06T20:21:23.606Z,50.45
2022-11-06T20:23:50.729Z,51.97
2022-11-06T20:26:17.539Z,51.13
2022-11-06T20:28:46.795Z,51.13
2022-11-06T20:31:14.267Z,50.40
2022-11-06T20:33:41.275Z,50.67
2022-11-06T20:36:14.301Z,51.40
2022-11-06T20:38:41.309Z,51.17
2022-11-06T20:41:08.235Z,52.03
2022-11-06T20:43:35.285Z,50.38
2022-11-06T20:46:02.477Z,57.05
2022-11-06T20:48:30.493Z,54.58
2022-11-06T20:51:04.437Z,52.30
2022-11-06T20:53:31.564Z,54.05
2022-11-06T20:56:08.486Z,53.05
2022-11-06T20:58:38.414Z,52.80
2022-11-06T21:01:05.302Z,54.05
2022-11-06T21:03:32.433Z,53.08
2022-11-06T21:05:59.298Z,52.60
2022-11-06T21:08:27.874Z,54.15
2022-11-06T21:11:04.874Z,54.22
2022-11-06T21:13:33.446Z,56.22
2022-11-06T21:16:01.510Z,51.90
2022-11-06T21:18:28.674Z,52.55
2022-11-06T21:20:55.520Z,51.90
2022-11-06T21:23:22.640Z,52.90
2022-11-06T21:25:49.331Z,50.83
2022-11-06T21:28:16.452Z,52.70
2022-11-06T21:30:47.076Z,50.80
2022-11-06T21:33:14.585Z,51.17
2022-11-06T21:35:41.621Z,51.10
2022-11-06T21:38:08.672Z,50.88
2022-11-06T21:40:35.415Z,52.58
2022-11-06T21:43:02.576Z,47.78
2022-11-06T21:45:29.272Z,47.35
2022-11-06T21:47:56.297Z,47.78
2022-11-06T21:50:29.843Z,49.05
2022-11-06T21:53:15.381Z,49.20
2022-11-06T21:56:00.353Z,45.95
2022-11-06T21:58:27.525Z,45.65
2022-11-06T22:00:54.212Z,45.20
2022-11-06T22:03:21.179Z,45.60
2022-11-06T22:05:47.920Z,46.28
2022-11-06T22:08:15.142Z,44.85
2022-11-06T22:10:42.156Z,45.15
2022-11-06T22:13:09.176Z,46.30
2022-11-06T22:15:35.913Z,43.72
2022-11-06T22:18:03.073Z,46.13
2022-11-06T22:20:29.840Z,44.85
2022-11-06T22:22:57.216Z,42.60
2022-11-06T22:25:24.309Z,42.42
2022-11-06T22:27:51.613Z,43.25
2022-11-06T22:30:18.504Z,40.63
2022-11-06T22:32:45.530Z,41.35
2022-11-06T22:35:12.323Z,40.85
2022-11-06T22:37:39.446Z,41.53
2022-11-06T22:40:06.870Z,42.58
2022-11-06T22:42:34.330Z,41.50
2022-11-06T22:45:01.230Z,39.20
2022-11-06T22:47:28.468Z,39.70
2022-11-06T22:49:55.259Z,38.47
2022-11-06T22:52:22.287Z,39.60
2022-11-06T22:54:49.096Z,40.35
2022-11-06T22:57:16.090Z,39.22
2022-11-06T22:59:42.795Z,37.72
2022-11-06T23:02:09.944Z,38.45
2022-11-06T23:04:36.770Z,38.13
2022-11-06T23:07:03.827Z,39.08
2022-11-06T23:09:30.627Z,37.55
2022-11-06T23:11:57.374Z,37.25
2022-11-06T23:14:24.406Z,37.88
2022-11-06T23:16:57.030Z,35.25
2022-11-06T23:19:24.035Z,37.88
2022-11-06T23:21:51.158Z,37.92
2022-11-06T23:24:17.888Z,36.90
2022-11-06T23:26:44.899Z,35.33
2022-11-06T23:29:11.667Z,35.75
2022-11-06T23:31:38.731Z,34.55
2022-11-06T23:34:05.500Z,33.40
2022-11-06T23:36:32.521Z,34.17
2022-11-06T23:38:59.290Z,35.15
2022-11-06T23:41:46.082Z,34.92
2022-11-06T23:44:32.769Z,34.50
2022-11-06T23:46:59.933Z,32.35
2022-11-06T23:49:26.736Z,33.08
2022-11-06T23:51:53.760Z,33.30
2022-11-06T23:54:20.472Z,34.55
2022-11-06T23:56:47.526Z,32.20
2022-11-06T23:59:14.217Z,32.97
